Time;durP1;ratioP1;P1;durP2;ratioP2;P2;SDS_P1;SDS_P2;PMS_P1;PMS_P2;Temp;Humidity;BMP_temperature;BMP_pressure;BME280_temperature;BME280_humidity;BME280_pressure;Samples;Min_cycle;Max_cycle;Signal;HPM_P1;HPM_P2
2023/12/22 00:00:24;;;;;;;;;;;9.70;56.00;;;8.31;63.63;98171.75;12245227;19;19934;-84
2023/12/22 00:04:25;;;;;;;;;;;9.80;57.20;;;8.26;63.63;98179.13;12249674;19;19922;-84
2023/12/22 00:08:27;;;;;;;;;;;9.70;57.70;;;8.18;63.51;98160.78;12250075;19;20325;-84
2023/12/22 00:12:28;;;;;;;;;;;9.80;56.60;;;8.22;63.56;98171.75;12246464;19;19911;-85
2023/12/22 00:16:30;;;;;;;;;;;9.70;56.70;;;8.19;63.60;98193.63;12249094;19;19919;-84
2023/12/22 00:20:31;;;;;;;;;;;9.80;55.80;;;8.09;63.47;98180.59;12246577;19;20445;-85
2023/12/22 00:24:33;;;;;;;;;;;9.60;56.50;;;8.14;63.34;98203.59;12247215;19;19919;-85
2023/12/22 00:28:34;;;;;;;;;;;9.60;56.50;;;8.08;63.36;98193.72;12246799;19;19940;-85
2023/12/22 00:32:36;;;;;;;;;;;9.50;56.20;;;7.99;63.32;98177.13;12243510;19;20438;-85
2023/12/22 00:36:38;;;;;;;;;;;9.70;55.20;;;7.98;63.18;98209.28;12247330;19;20262;-84
2023/12/22 00:40:39;;;;;;;;;;;9.40;56.60;;;7.88;63.35;98214.41;12245076;19;19943;-84
2023/12/22 00:44:41;;;;;;;;;;;9.40;56.30;;;7.79;63.41;98204.00;12247356;19;19922;-84
2023/12/22 00:48:43;;;;;;;;;;;9.30;56.20;;;7.84;63.24;98227.81;12247035;19;19926;-84
2023/12/22 00:52:44;;;;;;;;;;;9.30;56.40;;;7.74;63.25;98214.75;12243469;19;19942;-84
2023/12/22 00:56:46;;;;;;;;;;;9.30;56.10;;;7.79;63.37;98219.59;12245473;19;19919;-85
2023/12/22 01:00:47;;;;;;;;;;;9.30;56.20;;;7.63;63.17;98189.69;12241389;19;19918;-84
2023/12/22 01:04:49;;;;;;;;;;;9.30;54.60;;;7.85;63.22;98232.88;12246599;19;19923;-85
2023/12/22 01:08:50;;;;;;;;;;;9.30;55.80;;;7.85;63.32;98264.03;12246780;19;19919;-84
2023/12/22 01:12:52;;;;;;;;;;;9.30;56.30;;;7.85;63.30;98284.00;12243550;19;20302;-85
2023/12/22 01:16:54;;;;;;;;;;;9.30;57.10;;;7.78;63.22;98273.31;12246519;19;19922;-84
2023/12/22 01:20:55;;;;;;;;;;;9.30;57.40;;;7.66;63.31;98254.38;12243346;19;19922;-84
2023/12/22 01:24:57;;;;;;;;;;;9.20;56.20;;;7.77;63.17;98287.25;12243540;19;19917;-84
2023/12/22 01:28:59;;;;;;;;;;;9.20;56.40;;;7.58;63.16;98259.38;12245112;19;19923;-84
2023/12/22 01:33:00;;;;;;;;;;;9.20;56.50;;;7.60;63.13;98280.03;12241260;19;19942;-84
2023/12/22 01:37:02;;;;;;;;;;;9.20;56.50;;;7.62;63.27;98296.31;12244651;19;19914;-85
2023/12/22 01:41:03;;;;;;;;;;;9.10;56.00;;;7.60;63.03;98291.25;12242765;19;19923;-85
2023/12/22 01:45:06;;;;;;;;;;;9.10;56.00;;;7.65;63.13;98293.47;12242388;19;19974;-84
2023/12/22 01:49:08;;;;;;;;;;;9.10;56.20;;;7.39;63.20;98283.44;12243012;19;19922;-84
2023/12/22 01:53:09;;;;;;;;;;;9.10;56.50;;;7.43;63.23;98282.25;12239321;19;19919;-85
2023/12/22 01:57:13;;;;;;;;;;;9.00;56.90;;;7.44;63.06;98289.06;12242908;19;19922;-85
2023/12/22 02:01:15;;;;;;;;;;;9.40;55.70;;;7.58;63.09;98307.91;12240376;19;19929;-85
2023/12/22 02:05:16;;;;;;;;;;;9.10;56.80;;;7.60;63.18;98312.00;12243008;19;19919;-85
2023/12/22 02:09:18;;;;;;;;;;;9.00;57.10;;;7.52;62.89;98304.03;12244979;19;19939;-84
2023/12/22 02:13:20;;;;;;;;;;;9.10;56.60;;;7.58;62.97;98313.91;12250597;19;20310;-85
2023/12/22 02:17:29;;;;;;;;;;;9.00;57.10;;;7.56;63.14;98320.19;12256230;19;19924;-85
2023/12/22 02:21:31;;;;;;;;;;;9.00;57.10;;;7.49;63.17;98315.50;12247162;19;19923;-85
2023/12/22 02:25:32;;;;;;;;;;;9.00;56.80;;;7.54;62.97;98331.53;12253750;19;19931;-84
2023/12/22 02:29:40;;;;;;;;;;;9.00;57.10;;;7.47;62.98;98334.72;12255200;19;19926;-84
2023/12/22 02:33:42;;;;;;;;;;;9.00;57.20;;;7.49;63.11;98338.84;12249589;19;19947;-85
2023/12/22 02:37:46;;;;;;;;;;;9.00;57.00;;;7.38;63.04;98319.91;12252107;19;19914;-85
2023/12/22 02:41:48;;;;;;;;;;;9.00;57.20;;;7.53;63.04;98337.69;12248101;19;19922;-85
2023/12/22 02:45:51;;;;;;;;;;;9.00;57.30;;;7.59;63.12;98356.28;12251152;19;19923;-85
2023/12/22 02:49:52;;;;;;;;;;;9.00;57.10;;;7.48;63.01;98337.22;12254374;19;19919;-84
2023/12/22 02:53:54;;;;;;;;;;;9.00;57.20;;;7.08;63.07;98280.72;12247610;19;19922;-85
2023/12/22 02:57:55;;;;;;;;;;;9.00;57.30;;;7.50;63.12;98350.06;12250992;19;19926;-84
2023/12/22 03:01:57;;;;;;;;;;;9.00;57.40;;;7.51;63.05;98349.94;12248593;19;19918;-85
2023/12/22 03:05:58;;;;;;;;;;;9.20;57.70;;;7.48;62.93;98352.81;12251945;19;19911;-85
2023/12/22 03:10:00;;;;;;;;;;;8.90;57.30;;;7.45;62.83;98347.00;12250205;19;19978;-85
2023/12/22 03:14:01;;;;;;;;;;;9.00;57.50;;;7.43;63.12;98347.16;12248117;19;19929;-85
2023/12/22 03:18:05;;;;;;;;;;;8.90;57.30;;;7.43;63.01;98349.75;12251441;19;19919;-85
2023/12/22 03:22:07;;;;;;;;;;;8.90;57.60;;;7.40;62.81;98342.22;12244520;19;19918;-85
2023/12/22 03:26:08;;;;;;;;;;;9.00;57.60;;;7.44;63.04;98353.97;12250618;19;19923;-84
2023/12/22 03:30:10;;;;;;;;;;;8.90;57.50;;;7.31;63.05;98325.56;12250186;19;19926;-84
2023/12/22 03:34:12;;;;;;;;;;;8.90;57.40;;;7.33;62.93;98343.63;12248166;19;20235;-84
2023/12/22 03:38:13;;;;;;;;;;;8.90;57.20;;;7.31;62.95;98328.19;12250821;19;19926;-84
2023/12/22 03:42:15;;;;;;;;;;;9.00;57.30;;;7.32;62.99;98335.03;12246665;19;19911;-84
2023/12/22 03:46:18;;;;;;;;;;;8.80;57.60;;;7.18;62.86;98311.13;12250455;19;19982;-84
2023/12/22 03:50:19;;;;;;;;;;;8.80;57.70;;;7.07;63.03;98286.88;12247665;19;19919;-84
2023/12/22 03:54:21;;;;;;;;;;;8.80;57.70;;;7.25;62.82;98325.25;12246534;19;19919;-84
2023/12/22 03:58:22;;;;;;;;;;;8.70;57.60;;;7.24;62.93;98310.66;12249798;19;19967;-84
2023/12/22 04:02:24;;;;;;;;;;;8.70;57.40;;;7.20;62.87;98340.38;12247158;19;19922;-84
2023/12/22 04:06:26;;;;;;;;;;;8.70;57.30;;;7.18;62.83;98337.06;12249456;19;19923;-84
2023/12/22 04:10:28;;;;;;;;;;;8.70;57.50;;;7.15;62.84;98337.31;12248336;19;19963;-84
2023/12/22 04:14:30;;;;;;;;;;;8.60;56.90;;;7.09;63.10;98336.84;12244772;19;19939;-84
2023/12/22 04:18:32;;;;;;;;;;;8.60;57.50;;;7.06;62.94;98312.94;12246883;19;19936;-85
2023/12/22 04:22:33;;;;;;;;;;;8.60;57.50;;;7.02;62.90;98327.94;12245747;19;19978;-85
2023/12/22 04:26:35;;;;;;;;;;;8.60;57.50;;;7.18;63.10;98353.47;12248787;19;20008;-84
2023/12/22 04:30:37;;;;;;;;;;;8.60;56.90;;;7.07;63.02;98345.72;12246892;19;19922;-84
2023/12/22 04:34:38;;;;;;;;;;;8.60;57.40;;;7.17;62.89;98356.19;12243336;19;19990;-84
2023/12/22 04:38:41;;;;;;;;;;;8.60;57.50;;;7.05;62.78;98332.88;12248585;19;19927;-85
2023/12/22 04:42:42;;;;;;;;;;;8.60;57.50;;;6.84;62.71;98306.03;12244962;19;19926;-84
2023/12/22 04:46:44;;;;;;;;;;;8.60;57.50;;;7.10;62.87;98366.22;12247932;19;19942;-84
2023/12/22 04:50:46;;;;;;;;;;;8.60;57.70;;;6.94;62.96;98335.50;12246466;19;20363;-84
2023/12/22 04:54:47;;;;;;;;;;;8.50;57.80;;;6.96;62.77;98335.34;12244417;19;20328;-85
2023/12/22 04:58:50;;;;;;;;;;;8.60;57.70;;;6.95;62.85;98338.91;12246016;19;19935;-85
2023/12/22 05:02:51;;;;;;;;;;;8.50;57.90;;;7.02;62.99;98340.91;12246875;19;19910;-84
2023/12/22 05:06:53;;;;;;;;;;;8.50;58.00;;;6.94;62.89;98339.84;12245717;19;19920;-84
2023/12/22 05:10:55;;;;;;;;;;;8.50;58.10;;;7.00;62.69;98366.13;12242064;19;20326;-85
2023/12/22 05:14:56;;;;;;;;;;;8.50;57.90;;;6.95;62.67;98351.88;12242578;19;19922;-85
2023/12/22 05:18:58;;;;;;;;;;;8.50;58.10;;;6.84;62.81;98352.72;12244300;19;19971;-85
2023/12/22 05:23:00;;;;;;;;;;;8.40;58.30;;;6.78;62.68;98341.06;12243652;19;19923;-85
2023/12/22 05:27:02;;;;;;;;;;;8.40;58.30;;;6.74;62.88;98339.63;12243979;19;19915;-85
2023/12/22 05:31:04;;;;;;;;;;;8.30;58.30;;;6.59;62.98;98333.88;12241492;19;19943;-85
2023/12/22 05:35:06;;;;;;;;;;;8.20;58.40;;;6.67;62.91;98338.47;12234248;19;19935;-85
2023/12/22 05:39:09;;;;;;;;;;;8.10;58.50;;;6.57;62.63;98343.53;12244556;19;19927;-85
2023/12/22 05:43:11;;;;;;;;;;;8.10;58.40;;;6.23;62.95;98303.00;12242971;19;20263;-85
2023/12/22 05:47:13;;;;;;;;;;;7.90;58.50;;;6.48;62.90;98357.22;12256389;19;19975;-85
2023/12/22 05:51:15;;;;;;;;;;;8.00;58.60;;;6.40;62.93;98350.03;12250048;19;19958;-85
2023/12/22 05:55:16;;;;;;;;;;;7.90;58.70;;;6.14;62.82;98296.75;12250199;19;19934;-85
2023/12/22 05:59:18;;;;;;;;;;;7.90;58.80;;;6.30;62.91;98325.75;12255118;19;19934;-85
2023/12/22 06:03:19;;;;;;;;;;;7.80;58.80;;;6.14;62.98;98325.25;12253827;19;19914;-85
2023/12/22 06:07:21;;;;;;;;;;;7.80;58.80;;;6.25;62.83;98340.81;12256531;19;19914;-85
2023/12/22 06:11:22;;;;;;;;;;;7.80;58.80;;;6.24;62.81;98359.91;12251419;19;19918;-85
2023/12/22 06:15:24;;;;;;;;;;;7.70;58.80;;;6.04;62.80;98330.28;12254861;19;19919;-85
2023/12/22 06:19:28;;;;;;;;;;;7.70;58.90;;;6.02;62.84;98328.75;12253713;19;19934;-85
2023/12/22 06:23:30;;;;;;;;;;;7.70;58.80;;;6.26;62.98;98391.69;12253006;19;19915;-85
2023/12/22 06:27:31;;;;;;;;;;;7.90;58.90;;;6.24;62.85;98378.03;12253401;19;19919;-85
2023/12/22 06:31:33;;;;;;;;;;;7.90;58.90;;;5.98;62.77;98312.63;12255713;19;20276;-87
2023/12/22 06:35:34;;;;;;;;;;;7.70;58.80;;;6.20;63.04;98328.19;12258009;19;19940;-85
2023/12/22 06:39:36;;;;;;;;;;;7.70;58.70;;;6.25;62.97;98365.91;12255867;19;19915;-85
2023/12/22 06:43:37;;;;;;;;;;;7.70;58.70;;;6.26;62.95;98386.50;12256957;19;19931;-84
2023/12/22 06:47:39;;;;;;;;;;;7.70;58.60;;;6.25;62.98;98374.50;12253779;19;19927;-85
2023/12/22 06:51:41;;;;;;;;;;;7.70;58.50;;;6.27;63.04;98377.81;12250345;19;20376;-85
2023/12/22 06:55:42;;;;;;;;;;;7.70;58.40;;;6.30;62.90;98392.31;12252662;19;19951;-85
2023/12/22 06:59:44;;;;;;;;;;;7.80;58.40;;;6.22;62.83;98374.75;12250499;19;19922;-84
2023/12/22 07:03:49;;;;;;;;;;;7.80;58.50;;;6.26;62.83;98373.56;12253504;19;19978;-87
2023/12/22 07:07:51;;;;;;;;;;;7.80;58.60;;;6.22;62.79;98386.88;12254399;19;19918;-86
2023/12/22 07:11:52;;;;;;;;;;;7.70;58.70;;;6.17;62.83;98408.75;12248634;19;19931;-85
2023/12/22 07:15:54;;;;;;;;;;;7.70;59.00;;;6.20;62.83;98425.84;12253284;19;19914;-85
2023/12/22 07:19:57;;;;;;;;;;;7.70;58.70;;;6.11;63.00;98424.78;12249111;19;19982;-85
2023/12/22 07:23:59;;;;;;;;;;;7.70;58.80;;;6.13;62.98;98438.44;12250494;19;19911;-85
2023/12/22 07:28:00;;;;;;;;;;;7.60;58.80;;;5.90;63.08;98418.53;12250941;19;20393;-86
2023/12/22 07:32:02;;;;;;;;;;;7.60;58.90;;;6.03;62.89;98426.28;12249621;19;19918;-85
2023/12/22 07:36:04;;;;;;;;;;;7.60;58.90;;;6.08;62.95;98448.31;12251023;19;19918;-86
2023/12/22 07:40:07;;;;;;;;;;;7.60;59.00;;;6.08;62.85;98445.72;12251475;19;19915;-86
2023/12/22 07:44:08;;;;;;;;;;;7.50;59.00;;;5.96;62.84;98425.88;12249377;19;20368;-86
2023/12/22 07:48:10;;;;;;;;;;;7.50;59.00;;;5.76;62.91;98393.66;12250561;19;19911;-85
2023/12/22 07:52:12;;;;;;;;;;;7.50;59.10;;;5.93;62.86;98416.56;12248290;19;20326;-85
2023/12/22 07:56:13;;;;;;;;;;;7.50;59.10;;;6.02;62.93;98420.25;12247316;19;19985;-86
2023/12/22 08:00:15;;;;;;;;;;;7.60;59.10;;;6.10;63.00;98427.47;12246828;19;19923;-86
2023/12/22 08:04:17;;;;;;;;;;;7.50;59.10;;;6.09;62.97;98429.22;12245583;19;19918;-86
2023/12/22 08:08:19;;;;;;;;;;;7.70;59.10;;;6.06;63.28;98415.69;12247188;19;19930;-85
2023/12/22 08:12:20;;;;;;;;;;;7.50;59.00;;;6.05;63.20;98435.59;12244358;19;20350;-85
2023/12/22 08:16:22;;;;;;;;;;;7.60;59.00;;;6.11;63.02;98427.38;12241992;19;19918;-86
2023/12/22 08:20:23;;;;;;;;;;;7.60;58.80;;;6.11;62.98;98450.69;12244184;19;19919;-85
2023/12/22 08:24:24;;;;;;;;;;;7.60;58.70;;;6.08;63.04;98450.91;12245841;19;20017;-86
2023/12/22 08:28:26;;;;;;;;;;;7.60;58.50;;;6.15;63.04;98456.44;12246139;19;20038;-86
2023/12/22 08:32:27;;;;;;;;;;;7.70;58.60;;;6.17;63.15;98464.94;12238126;19;19923;-85
2023/12/22 08:36:28;;;;;;;;;;;7.80;58.20;;;5.95;63.08;98429.44;12245288;19;19938;-84
2023/12/22 08:40:29;;;;;;;;;;;7.70;58.30;;;6.05;63.07;98465.84;12243782;19;19911;-86
2023/12/22 08:44:31;;;;;;;;;;;7.70;58.10;;;6.14;63.08;98486.72;12246164;19;19978;-86
2023/12/22 08:48:33;;;;;;;;;;;7.70;58.20;;;6.31;62.91;98501.03;12243618;19;19919;-86
2023/12/22 08:52:35;;;;;;;;;;;7.80;57.90;;;5.82;62.92;98429.47;12245905;19;19967;-86
2023/12/22 08:56:37;;;;;;;;;;;7.80;58.20;;;6.28;63.14;98516.81;12245891;19;19975;-85
2023/12/22 09:00:39;;;;;;;;;;;7.80;58.00;;;5.92;62.99;98455.53;12243495;19;19939;-85
2023/12/22 09:04:41;;;;;;;;;;;7.80;57.80;;;6.30;63.10;98525.31;12245848;19;19926;-86
2023/12/22 09:08:46;;;;;;;;;;;7.80;57.70;;;6.06;62.77;98514.13;12244614;19;19926;-86
2023/12/22 09:12:47;;;;;;;;;;;8.00;57.40;;;5.90;62.83;98467.75;12242110;19;19934;-85
2023/12/22 09:16:49;;;;;;;;;;;7.80;57.50;;;6.19;62.89;98509.72;12244547;19;19926;-86
2023/12/22 09:20:51;;;;;;;;;;;7.80;57.30;;;5.79;62.87;98475.47;12249080;19;20310;-86
2023/12/22 09:24:53;;;;;;;;;;;7.80;57.60;;;6.08;63.11;98509.69;12256712;19;19915;-85
2023/12/22 09:28:55;;;;;;;;;;;7.90;57.80;;;5.71;63.01;98442.34;12253290;19;19933;-85
2023/12/22 09:32:57;;;;;;;;;;;7.90;57.30;;;6.02;62.94;98495.38;12250795;19;19925;-85
2023/12/22 09:36:59;;;;;;;;;;;7.90;57.40;;;6.28;62.94;98552.28;12256056;19;19926;-86
2023/12/22 09:41:01;;;;;;;;;;;8.00;57.20;;;6.50;63.00;98565.31;12251582;19;19911;-85
2023/12/22 09:45:05;;;;;;;;;;;8.00;57.30;;;6.53;63.04;98579.81;12255373;19;19941;-85
2023/12/22 09:49:11;;;;;;;;;;;8.00;56.80;;;5.95;62.77;98500.19;12253392;19;19933;-85
2023/12/22 09:53:13;;;;;;;;;;;8.00;57.10;;;6.20;62.99;98543.28;12249869;19;19914;-86
2023/12/22 09:57:15;;;;;;;;;;;8.10;56.80;;;6.62;62.89;98590.34;12254622;19;19919;-85
2023/12/22 10:01:21;;;;;;;;;;;8.10;56.70;;;6.55;62.93;98577.94;12249999;19;19915;-85
2023/12/22 10:05:22;;;;;;;;;;;8.10;56.60;;;6.64;62.81;98588.50;12252387;19;19948;-85
2023/12/22 10:09:24;;;;;;;;;;;8.20;57.10;;;6.32;62.86;98546.75;12253348;19;19915;-85
2023/12/22 10:13:27;;;;;;;;;;;8.30;57.30;;;6.81;63.00;98594.19;12250939;19;20302;-85
2023/12/22 10:17:29;;;;;;;;;;;8.30;57.00;;;6.52;62.71;98563.44;12254539;19;19936;-86
2023/12/22 10:21:31;;;;;;;;;;;8.20;56.90;;;6.56;62.79;98572.66;12247208;19;19922;-85
2023/12/22 10:25:33;;;;;;;;;;;8.40;57.10;;;6.34;62.86;98515.53;12247897;19;20353;-85
2023/12/22 10:29:35;;;;;;;;;;;8.40;57.00;;;6.52;62.83;98552.25;12251213;19;19926;-85
2023/12/22 10:33:37;;;;;;;;;;;8.40;56.40;;;6.37;62.67;98507.53;12243884;19;19915;-85
2023/12/22 10:37:39;;;;;;;;;;;8.70;57.00;;;6.54;62.72;98525.28;12255027;19;19966;-85
2023/12/22 10:41:40;;;;;;;;;;;8.50;56.20;;;6.78;62.83;98576.28;12246746;19;19915;-85
2023/12/22 10:45:42;;;;;;;;;;;8.60;56.90;;;7.12;62.83;98626.44;12250094;19;19947;-85
2023/12/22 10:49:45;;;;;;;;;;;8.60;56.20;;;7.15;62.85;98612.44;12250898;19;19923;-85
2023/12/22 10:53:47;;;;;;;;;;;8.60;56.20;;;7.17;62.56;98632.13;12249048;19;19922;-86
2023/12/22 10:57:49;;;;;;;;;;;8.80;56.10;;;7.00;62.83;98602.25;12252783;19;19915;-85
2023/12/22 11:01:53;;;;;;;;;;;8.60;56.60;;;6.84;62.57;98588.78;12247136;19;19921;-85
2023/12/22 11:05:57;;;;;;;;;;;8.80;56.80;;;7.30;62.72;98616.47;12252219;19;19917;-86
2023/12/22 11:10:11;;;;;;;;;;;8.80;56.20;;;7.33;62.52;98618.84;12247604;19;19911;-86
2023/12/22 11:14:13;;;;;;;;;;;8.80;56.00;;;7.37;62.49;98643.63;12251424;19;19918;-86
2023/12/22 11:18:15;;;;;;;;;;;8.90;55.40;;;7.02;62.58;98577.03;12253118;19;20319;-85
2023/12/22 11:22:19;;;;;;;;;;;8.90;54.90;;;7.28;62.44;98626.13;12248856;19;19936;-85
2023/12/22 11:26:22;;;;;;;;;;;8.90;55.50;;;7.42;62.47;98633.69;12255289;19;19933;-86
2023/12/22 11:30:25;;;;;;;;;;;8.90;56.00;;;7.05;62.41;98569.00;12251626;19;19939;-85
2023/12/22 11:34:28;;;;;;;;;;;8.90;55.30;;;7.08;62.43;98576.56;12248884;19;19940;-84
2023/12/22 11:38:31;;;;;;;;;;;8.90;55.00;;;7.48;62.35;98625.47;12254868;19;19935;-85
2023/12/22 11:42:38;;;;;;;;;;;9.00;54.90;;;7.21;62.44;98576.47;12245458;19;19918;-85
2023/12/22 11:46:40;;;;;;;;;;;9.00;55.20;;;6.87;62.32;98515.91;12251145;19;19919;-85
2023/12/22 11:50:42;;;;;;;;;;;9.00;54.70;;;7.19;62.34;98562.78;12249651;19;19986;-85
2023/12/22 11:54:51;;;;;;;;;;;9.00;54.60;;;7.57;62.13;98625.69;12248352;19;20250;-85
2023/12/22 11:58:54;;;;;;;;;;;9.10;55.40;;;7.58;62.20;98624.75;12250513;19;19911;-86
2023/12/22 12:02:56;;;;;;;;;;;9.00;55.10;;;7.60;62.10;98630.66;12249704;19;20242;-88
2023/12/22 12:07:18;;;;;;;;;;;9.10;55.20;;;7.13;62.37;98552.00;12254610;19;19910;-86
2023/12/22 12:11:51;;;;;;;;;;;8.90;56.00;;;7.14;62.12;98558.88;12250546;19;19923;-86
2023/12/22 12:15:55;;;;;;;;;;;9.10;55.50;;;7.29;62.07;98597.47;12246622;19;19919;-86
2023/12/22 12:20:09;;;;;;;;;;;9.20;55.40;;;7.04;62.32;98543.97;12248668;19;19935;-86
2023/12/22 12:24:17;;;;;;;;;;;9.20;56.20;;;7.39;62.17;98597.59;12248778;19;19918;-85
2023/12/22 12:28:24;;;;;;;;;;;9.20;55.20;;;7.42;62.30;98599.94;12247062;19;19915;-85
2023/12/22 12:32:26;;;;;;;;;;;9.20;53.60;;;7.68;62.12;98656.88;12244432;19;19926;-85
2023/12/22 12:36:28;;;;;;;;;;;9.20;55.20;;;7.64;62.31;98650.25;12246723;19;19914;-85
2023/12/22 12:40:32;;;;;;;;;;;9.20;55.50;;;7.57;62.22;98623.09;12246214;19;20537;-85
2023/12/22 12:44:34;;;;;;;;;;;9.20;54.80;;;7.71;62.27;98657.44;12244033;19;19951;-85
2023/12/22 12:48:36;;;;;;;;;;;9.20;54.70;;;7.58;62.12;98620.38;12246365;19;20604;-85
2023/12/22 12:52:37;;;;;;;;;;;9.20;55.40;;;7.61;62.21;98637.50;12242846;19;19971;-85
2023/12/22 12:56:44;;;;;;;;;;;9.20;54.30;;;7.62;62.18;98623.59;12238360;19;19914;-85
2023/12/22 13:00:46;;;;;;;;;;;9.20;54.90;;;7.56;62.20;98653.44;12242805;19;19923;-85
2023/12/22 13:04:47;;;;;;;;;;;9.20;55.10;;;7.61;62.05;98637.50;12242651;19;20276;-85
2023/12/22 13:08:52;;;;;;;;;;;9.10;55.60;;;7.55;62.16;98638.78;12244565;19;20250;-85
2023/12/22 13:12:54;;;;;;;;;;;9.20;55.80;;;7.59;62.18;98636.78;12243433;19;19922;-84
2023/12/22 13:16:57;;;;;;;;;;;9.20;55.40;;;7.63;62.05;98644.22;12242981;19;19939;-85
2023/12/22 13:20:59;;;;;;;;;;;9.10;55.40;;;7.62;62.04;98641.75;12243226;19;19919;-85
2023/12/22 13:25:01;;;;;;;;;;;9.10;55.20;;;7.52;61.98;98619.06;12243553;19;19911;-85
2023/12/22 13:29:02;;;;;;;;;;;9.10;55.30;;;7.58;61.89;98646.34;12244245;19;19919;-85
2023/12/22 13:33:04;;;;;;;;;;;9.10;55.50;;;7.54;62.05;98634.56;12240292;19;19992;-85
2023/12/22 13:37:06;;;;;;;;;;;9.10;55.40;;;7.25;62.00;98590.84;12245726;19;19915;-85
2023/12/22 13:41:08;;;;;;;;;;;9.00;54.10;;;7.54;61.98;98650.13;12240961;19;19939;-85
2023/12/22 13:45:11;;;;;;;;;;;9.00;55.10;;;7.48;61.99;98630.66;12245941;19;19915;-85
2023/12/22 13:49:13;;;;;;;;;;;9.00;55.20;;;7.54;62.01;98640.56;12244369;19;19934;-85
2023/12/22 13:53:15;;;;;;;;;;;9.00;55.30;;;7.50;61.99;98646.91;12241096;19;19926;-85
2023/12/22 13:57:21;;;;;;;;;;;9.00;55.30;;;7.62;61.79;98662.53;12240769;19;20337;-85
2023/12/22 14:01:23;;;;;;;;;;;9.10;55.20;;;7.58;62.04;98658.50;12242219;19;19927;-85
2023/12/22 14:05:25;;;;;;;;;;;9.10;55.60;;;7.57;61.95;98662.06;12241395;19;19979;-85
2023/12/22 14:09:31;;;;;;;;;;;9.10;55.60;;;7.64;61.88;98668.41;12251933;19;19922;-85
2023/12/22 14:13:35;;;;;;;;;;;9.10;55.50;;;7.62;61.80;98668.56;12251751;19;19986;-85
2023/12/22 14:17:37;;;;;;;;;;;9.10;55.80;;;7.62;61.81;98683.31;12254937;19;19927;-85
2023/12/22 14:21:39;;;;;;;;;;;9.30;55.60;;;7.60;61.92;98685.19;12251891;19;19911;-85
2023/12/22 14:25:40;;;;;;;;;;;9.00;55.10;;;7.43;61.75;98663.94;12253672;19;19923;-85
2023/12/22 14:29:42;;;;;;;;;;;9.00;55.60;;;7.49;61.81;98679.03;12250506;19;19910;-85
2023/12/22 14:33:43;;;;;;;;;;;9.20;55.80;;;7.51;61.95;98671.16;12249950;19;19935;-85
2023/12/22 14:37:46;;;;;;;;;;;9.00;55.90;;;7.44;61.80;98669.94;12253640;19;19915;-85
2023/12/22 14:41:47;;;;;;;;;;;9.00;55.90;;;7.54;61.66;98704.69;12250644;19;19918;-85
2023/12/22 14:45:49;;;;;;;;;;;9.00;55.80;;;7.16;61.80;98645.25;12252109;19;20651;-85
2023/12/22 14:49:50;;;;;;;;;;;9.00;55.90;;;7.35;61.62;98707.81;12252795;19;20285;-84
2023/12/22 14:53:52;;;;;;;;;;;8.90;55.40;;;7.23;61.79;98693.13;12250377;19;20012;-85
2023/12/22 14:57:53;;;;;;;;;;;8.90;55.30;;;7.29;61.85;98705.66;12252886;19;19923;-85
2023/12/22 15:01:55;;;;;;;;;;;8.80;55.70;;;7.29;61.72;98716.03;12248907;19;19922;-85
2023/12/22 15:05:57;;;;;;;;;;;8.80;55.80;;;7.23;61.75;98706.13;12251109;19;19923;-85
2023/12/22 15:09:58;;;;;;;;;;;8.80;55.60;;;7.15;61.69;98700.66;12250419;19;19911;-84
2023/12/22 15:14:01;;;;;;;;;;;8.70;55.80;;;7.21;61.70;98728.75;12250587;19;19915;-85
2023/12/22 15:18:02;;;;;;;;;;;8.70;55.60;;;7.14;61.59;98712.81;12252634;19;19933;-85
2023/12/22 15:22:04;;;;;;;;;;;8.60;55.60;;;7.12;61.73;98721.66;12247771;19;20008;-85
2023/12/22 15:26:05;;;;;;;;;;;8.60;55.70;;;7.00;61.76;98719.03;12253092;19;20340;-85
2023/12/22 15:30:07;;;;;;;;;;;8.60;56.00;;;7.09;61.70;98739.09;12250136;19;19930;-85
2023/12/22 15:34:08;;;;;;;;;;;8.60;55.90;;;7.08;61.54;98728.84;12243710;19;19926;-85
2023/12/22 15:38:11;;;;;;;;;;;8.50;55.80;;;7.04;61.62;98730.81;12249917;19;19925;-85
2023/12/22 15:42:12;;;;;;;;;;;8.50;56.00;;;6.97;61.68;98729.63;12244534;19;19923;-86
2023/12/22 15:46:14;;;;;;;;;;;8.50;55.70;;;6.80;61.63;98715.25;12250739;19;20382;-85
2023/12/22 15:50:16;;;;;;;;;;;8.50;56.10;;;7.00;61.57;98738.97;12243940;19;19923;-85
2023/12/22 15:54:19;;;;;;;;;;;8.50;55.60;;;7.01;61.57;98757.00;12240748;19;20358;-85
2023/12/22 15:58:20;;;;;;;;;;;8.50;56.30;;;6.63;61.52;98706.09;12246026;19;19919;-85
2023/12/22 16:02:22;;;;;;;;;;;8.40;56.40;;;6.93;61.73;98742.94;12240428;19;19974;-85
2023/12/22 16:06:24;;;;;;;;;;;8.40;56.20;;;6.94;61.75;98750.63;12246320;19;19996;-84
2023/12/22 16:10:26;;;;;;;;;;;8.40;55.90;;;6.89;61.57;98733.72;12241602;19;19919;-85
2023/12/22 16:14:28;;;;;;;;;;;8.60;55.90;;;6.94;61.62;98737.66;12241720;19;20401;-85
2023/12/22 16:18:30;;;;;;;;;;;8.30;56.30;;;6.94;61.49;98753.22;12244490;19;19915;-84
2023/12/22 16:22:35;;;;;;;;;;;8.40;56.20;;;6.75;61.54;98732.09;12233929;19;20389;-85
2023/12/22 16:26:37;;;;;;;;;;;8.40;56.10;;;6.87;61.43;98754.56;12247713;19;19927;-85
2023/12/22 16:30:39;;;;;;;;;;;8.40;56.60;;;6.93;61.59;98758.50;12240555;19;19931;-85
2023/12/22 16:34:43;;;;;;;;;;;8.40;56.50;;;6.67;61.66;98701.56;12242822;19;20541;-85
2023/12/22 16:38:45;;;;;;;;;;;8.40;56.60;;;6.90;61.56;98738.78;12243247;19;20334;-85
2023/12/22 16:42:47;;;;;;;;;;;8.40;56.70;;;6.85;61.49;98740.88;12238049;19;19927;-85
2023/12/22 16:46:49;;;;;;;;;;;8.40;56.70;;;6.87;61.73;98745.03;12243865;19;19919;-85
2023/12/22 16:50:50;;;;;;;;;;;8.40;56.60;;;6.85;61.49;98736.50;12238273;19;20048;-84
2023/12/22 16:54:52;;;;;;;;;;;8.30;56.50;;;6.83;61.68;98732.38;12244054;19;20633;-85
2023/12/22 16:58:54;;;;;;;;;;;8.30;56.40;;;6.70;61.71;98713.44;12246125;19;20616;-85
2023/12/22 17:02:56;;;;;;;;;;;8.30;56.50;;;6.65;61.50;98729.34;12244533;19;19915;-84
2023/12/22 17:06:57;;;;;;;;;;;8.30;56.20;;;6.86;61.59;98763.31;12247497;19;19915;-85
2023/12/22 17:10:59;;;;;;;;;;;8.30;56.20;;;6.84;61.37;98754.81;12244962;19;19939;-84
2023/12/22 17:15:00;;;;;;;;;;;8.30;56.30;;;6.90;61.65;98772.53;12244639;19;19919;-85
2023/12/22 17:19:01;;;;;;;;;;;8.30;56.40;;;6.86;61.56;98755.53;12245962;19;19925;-85
2023/12/22 17:23:03;;;;;;;;;;;8.30;56.70;;;6.91;61.62;98760.38;12248009;19;19927;-88
2023/12/22 17:27:05;;;;;;;;;;;8.30;56.60;;;6.88;61.42;98753.63;12248454;19;19944;-85
2023/12/22 17:31:07;;;;;;;;;;;8.30;56.80;;;6.72;61.40;98727.13;12245196;19;19915;-85
2023/12/22 17:35:08;;;;;;;;;;;8.40;56.60;;;6.84;61.46;98744.44;12238101;19;20337;-85
2023/12/22 17:39:10;;;;;;;;;;;8.40;56.70;;;6.84;61.60;98745.25;12245993;19;20322;-85
2023/12/22 17:43:11;;;;;;;;;;;8.40;56.60;;;6.90;61.64;98725.00;12255282;19;19944;-85
2023/12/22 17:47:13;;;;;;;;;;;8.40;56.70;;;6.84;61.62;98749.63;12260900;19;19918;-84
2023/12/22 17:51:15;;;;;;;;;;;8.40;56.60;;;6.90;61.49;98756.13;12253531;19;19915;-84
2023/12/22 17:55:16;;;;;;;;;;;8.40;56.80;;;6.79;61.40;98736.97;12252320;19;19967;-84
2023/12/22 17:59:19;;;;;;;;;;;8.30;56.50;;;6.86;61.46;98761.53;12256854;19;19932;-85
2023/12/22 18:03:20;;;;;;;;;;;8.30;56.70;;;6.74;61.59;98753.78;12255803;19;19986;-84
2023/12/22 18:07:22;;;;;;;;;;;8.40;56.40;;;6.84;61.56;98784.16;12256692;19;19919;-84
2023/12/22 18:11:23;;;;;;;;;;;8.30;56.40;;;6.83;61.39;98792.03;12253349;19;19922;-84
2023/12/22 18:15:25;;;;;;;;;;;8.30;56.70;;;6.82;61.50;98790.41;12251792;19;19907;-85
2023/12/22 18:19:26;;;;;;;;;;;8.30;56.70;;;6.77;61.54;98785.53;12254490;19;20245;-85
2023/12/22 18:23:28;;;;;;;;;;;8.30;56.60;;;6.74;61.66;98766.75;12256450;19;19915;-84
2023/12/22 18:27:30;;;;;;;;;;;8.30;56.40;;;6.86;61.49;98789.25;12252697;19;19915;-85
2023/12/22 18:31:31;;;;;;;;;;;8.30;56.50;;;6.79;61.42;98788.03;12251360;19;20330;-84
2023/12/22 18:35:36;;;;;;;;;;;8.30;56.00;;;6.87;61.58;98798.69;12249329;19;19930;-84
2023/12/22 18:39:38;;;;;;;;;;;8.20;56.40;;;6.75;61.46;98802.97;12255967;19;20295;-84
2023/12/22 18:43:39;;;;;;;;;;;8.50;56.10;;;6.74;61.42;98803.91;12251422;19;19954;-84